Terminal Aerodrome Forecast
Issued by NWS Nashville, TN

Home | Current Version | Previous Version | Text Only | Print | Product List | Glossary On
Versions: 1 2 3 4 5 6 7 8 9 10 11 12 13 14
000
FTUS44 KOHX 011100
TAFCSV
TAF
KCSV 011127Z 0112/0212 00000KT 4SM BR SCT100 SCT250
     FM011300 VRB03KT P6SM SCT030
     FM020300 VRB03KT P6SM SKC
     FM021000 00000KT 4SM BR SCT250
      TEMPO 0210/0212 2SM BR=

USA.gov is the U.S. government's official web portal to all federal, state and local government web resources and services.